sensor_id;sensor_type;location;lat;lon;timestamp;pressure;altitude;pressure_sealevel;temperature;humidity
64086;BME280;50333;47.436;21.390;2023-02-28T00:01:30;101691.53;;;2.38;57.03
64086;BME280;50333;47.436;21.390;2023-02-28T00:03:59;101691.53;;;2.38;56.71
64086;BME280;50333;47.436;21.390;2023-02-28T00:06:27;101694.03;;;2.47;56.75
64086;BME280;50333;47.436;21.390;2023-02-28T00:08:54;101700.09;;;2.54;56.66
64086;BME280;50333;47.436;21.390;2023-02-28T00:11:22;101704.66;;;2.43;56.86
64086;BME280;50333;47.436;21.390;2023-02-28T00:13:51;101699.00;;;2.48;56.64
64086;BME280;50333;47.436;21.390;2023-02-28T00:16:21;101700.06;;;2.39;56.71
64086;BME280;50333;47.436;21.390;2023-02-28T00:18:50;101691.75;;;2.52;56.52
64086;BME280;50333;47.436;21.390;2023-02-28T00:21:19;101703.88;;;2.43;56.84
64086;BME280;50333;47.436;21.390;2023-02-28T00:23:47;101705.41;;;2.52;56.69
64086;BME280;50333;47.436;21.390;2023-02-28T00:26:15;101717.81;;;2.49;56.64
64086;BME280;50333;47.436;21.390;2023-02-28T00:28:44;101714.22;;;2.35;57.07
64086;BME280;50333;47.436;21.390;2023-02-28T00:31:11;101709.25;;;2.56;56.69
64086;BME280;50333;47.436;21.390;2023-02-28T00:33:39;101714.75;;;2.53;56.58
64086;BME280;50333;47.436;21.390;2023-02-28T00:36:09;101717.09;;;2.40;56.79
64086;BME280;50333;47.436;21.390;2023-02-28T00:38:38;101714.97;;;2.43;56.89
64086;BME280;50333;47.436;21.390;2023-02-28T00:41:07;101713.94;;;2.30;57.18
64086;BME280;50333;47.436;21.390;2023-02-28T00:43:36;101721.37;;;2.24;56.98
64086;BME280;50333;47.436;21.390;2023-02-28T00:46:04;101717.09;;;2.40;56.88
64086;BME280;50333;47.436;21.390;2023-02-28T00:48:33;101717.63;;;2.35;57.28
64086;BME280;50333;47.436;21.390;2023-02-28T00:51:01;101713.03;;;2.22;57.42
64086;BME280;50333;47.436;21.390;2023-02-28T00:53:29;101716.59;;;2.44;56.94
64086;BME280;50333;47.436;21.390;2023-02-28T00:55:58;101725.44;;;2.42;56.96
64086;BME280;50333;47.436;21.390;2023-02-28T00:58:26;101720.56;;;2.47;56.83
64086;BME280;50333;47.436;21.390;2023-02-28T01:00:54;101732.25;;;2.35;57.16
64086;BME280;50333;47.436;21.390;2023-02-28T01:03:22;101733.75;;;2.29;57.34
64086;BME280;50333;47.436;21.390;2023-02-28T01:05:50;101734.19;;;2.33;57.34
64086;BME280;50333;47.436;21.390;2023-02-28T01:08:20;101731.22;;;2.44;56.99
64086;BME280;50333;47.436;21.390;2023-02-28T01:10:50;101727.47;;;2.32;57.25
64086;BME280;50333;47.436;21.390;2023-02-28T01:13:18;101728.87;;;2.34;57.33
64086;BME280;50333;47.436;21.390;2023-02-28T01:15:50;101728.72;;;2.36;57.15
64086;BME280;50333;47.436;21.390;2023-02-28T01:18:20;101728.87;;;2.34;57.33
64086;BME280;50333;47.436;21.390;2023-02-28T01:20:48;101731.66;;;2.24;57.48
64086;BME280;50333;47.436;21.390;2023-02-28T01:23:16;101734.97;;;2.10;57.92
64086;BME280;50333;47.436;21.390;2023-02-28T01:25:44;101738.44;;;1.94;58.67
64086;BME280;50333;47.436;21.390;2023-02-28T01:28:12;101731.75;;;2.16;58.06
64086;BME280;50333;47.436;21.390;2023-02-28T01:30:40;101723.09;;;2.09;57.98
64086;BME280;50333;47.436;21.390;2023-02-28T01:33:08;101723.75;;;1.80;58.45
64086;BME280;50333;47.436;21.390;2023-02-28T01:35:36;101720.78;;;1.60;60.12
64086;BME280;50333;47.436;21.390;2023-02-28T01:38:04;101718.37;;;1.89;59.05
64086;BME280;50333;47.436;21.390;2023-02-28T01:40:48;101719.78;;;1.29;61.04
64086;BME280;50333;47.436;21.390;2023-02-28T01:45:56;101723.59;;;1.81;59.66
64086;BME280;50333;47.436;21.390;2023-02-28T01:48:28;101718.81;;;1.70;59.93
64086;BME280;50333;47.436;21.390;2023-02-28T01:51:02;101720.16;;;1.89;59.70
64086;BME280;50333;47.436;21.390;2023-02-28T01:53:36;101728.06;;;1.79;59.92
64086;BME280;50333;47.436;21.390;2023-02-28T01:56:06;101725.75;;;1.61;60.63
64086;BME280;50333;47.436;21.390;2023-02-28T01:58:36;101736.16;;;1.68;60.73
64086;BME280;50333;47.436;21.390;2023-02-28T02:01:04;101737.06;;;1.83;60.18
64086;BME280;50333;47.436;21.390;2023-02-28T02:03:35;101733.94;;;1.57;60.32
64086;BME280;50333;47.436;21.390;2023-02-28T02:06:03;101739.84;;;1.26;62.05
64086;BME280;50333;47.436;21.390;2023-02-28T02:08:31;101734.31;;;1.45;61.50
64086;BME280;50333;47.436;21.390;2023-02-28T02:11:01;101732.91;;;1.35;61.72
64086;BME280;50333;47.436;21.390;2023-02-28T02:16:34;101733.12;;;1.64;60.86
64086;BME280;50333;47.436;21.390;2023-02-28T02:30:29;101726.81;;;1.75;60.73
64086;BME280;50333;47.436;21.390;2023-02-28T02:36:04;101728.91;;;2.03;60.25
64086;BME280;50333;47.436;21.390;2023-02-28T02:38:58;101730.69;;;1.71;61.17
64086;BME280;50333;47.436;21.390;2023-02-28T02:41:45;101725.13;;;1.59;61.63
64086;BME280;50333;47.436;21.390;2023-02-28T02:44:36;101732.16;;;1.97;60.71
64086;BME280;50333;47.436;21.390;2023-02-28T02:47:11;101725.75;;;1.93;61.06
64086;BME280;50333;47.436;21.390;2023-02-28T02:49:46;101727.38;;;1.94;60.70
64086;BME280;50333;47.436;21.390;2023-02-28T02:52:18;101723.19;;;1.61;62.00
64086;BME280;50333;47.436;21.390;2023-02-28T02:54:50;101722.63;;;1.74;61.01
64086;BME280;50333;47.436;21.390;2023-02-28T02:57:31;101708.97;;;1.74;61.23
64086;BME280;50333;47.436;21.390;2023-02-28T03:00:03;101708.97;;;1.74;61.31
64086;BME280;50333;47.436;21.390;2023-02-28T03:02:32;101719.28;;;1.97;61.11
64086;BME280;50333;47.436;21.390;2023-02-28T03:05:09;101719.81;;;1.61;61.20
64086;BME280;50333;47.436;21.390;2023-02-28T03:07:41;101718.97;;;2.00;61.06
64086;BME280;50333;47.436;21.390;2023-02-28T03:10:40;101710.00;;;1.64;61.81
64086;BME280;50333;47.436;21.390;2023-02-28T03:13:12;101712.19;;;1.36;63.31
64086;BME280;50333;47.436;21.390;2023-02-28T03:16:05;101717.44;;;1.82;62.07
64086;BME280;50333;47.436;21.390;2023-02-28T03:18:45;101723.69;;;1.88;61.98
64086;BME280;50333;47.436;21.390;2023-02-28T03:21:34;101727.06;;;1.88;61.58
64086;BME280;50333;47.436;21.390;2023-02-28T03:24:11;101731.38;;;2.19;61.06
64086;BME280;50333;47.436;21.390;2023-02-28T03:26:53;101733.56;;;1.76;62.13
64086;BME280;50333;47.436;21.390;2023-02-28T03:29:35;101730.41;;;1.97;61.43
64086;BME280;50333;47.436;21.390;2023-02-28T03:34:56;101738.41;;;2.02;62.07
64086;BME280;50333;47.436;21.390;2023-02-28T03:37:26;101746.16;;;2.25;61.23
64086;BME280;50333;47.436;21.390;2023-02-28T03:40:21;101750.44;;;2.33;61.16
64086;BME280;50333;47.436;21.390;2023-02-28T03:42:57;101750.62;;;2.55;60.48
64086;BME280;50333;47.436;21.390;2023-02-28T03:45:29;101754.84;;;2.48;60.57
64086;BME280;50333;47.436;21.390;2023-02-28T03:48:00;101746.53;;;2.60;60.09
64086;BME280;50333;47.436;21.390;2023-02-28T03:50:36;101750.81;;;1.99;61.63
64086;BME280;50333;47.436;21.390;2023-02-28T03:53:13;101756.59;;;2.47;60.82
64086;BME280;50333;47.436;21.390;2023-02-28T03:55:48;101751.59;;;2.31;61.23
64086;BME280;50333;47.436;21.390;2023-02-28T03:58:31;101748.97;;;2.39;61.09
64086;BME280;50333;47.436;21.390;2023-02-28T04:01:08;101744.81;;;2.30;61.35
64086;BME280;50333;47.436;21.390;2023-02-28T04:03:38;101738.66;;;2.39;61.07
64086;BME280;50333;47.436;21.390;2023-02-28T04:06:08;101732.25;;;1.80;63.26
64086;BME280;50333;47.436;21.390;2023-02-28T04:08:41;101726.88;;;2.21;62.28
64086;BME280;50333;47.436;21.390;2023-02-28T04:11:18;101736.13;;;2.07;62.39
64086;BME280;50333;47.436;21.390;2023-02-28T04:13:47;101736.13;;;2.07;62.79
64086;BME280;50333;47.436;21.390;2023-02-28T04:16:15;101737.34;;;2.20;61.96
64086;BME280;50333;47.436;21.390;2023-02-28T04:19:04;101738.66;;;2.39;61.91
64086;BME280;50333;47.436;21.390;2023-02-28T04:21:38;101739.78;;;2.13;62.44
64086;BME280;50333;47.436;21.390;2023-02-28T04:24:12;101740.75;;;2.12;62.45
64086;BME280;50333;47.436;21.390;2023-02-28T04:26:46;101743.28;;;2.20;62.37
64086;BME280;50333;47.436;21.390;2023-02-28T04:29:36;101748.72;;;2.49;62.07
64086;BME280;50333;47.436;21.390;2023-02-28T04:32:04;101750.16;;;2.51;61.68
64086;BME280;50333;47.436;21.390;2023-02-28T04:34:32;101742.06;;;2.77;60.82
64086;BME280;50333;47.436;21.390;2023-02-28T04:37:00;101745.47;;;2.55;61.66
64086;BME280;50333;47.436;21.390;2023-02-28T04:39:44;101748.06;;;2.32;62.30
64086;BME280;50333;47.436;21.390;2023-02-28T04:42:13;101757.72;;;2.53;61.78
64086;BME280;50333;47.436;21.390;2023-02-28T04:44:41;101760.50;;;2.43;61.62
64086;BME280;50333;47.436;21.390;2023-02-28T04:47:09;101756.84;;;2.60;61.51
64086;BME280;50333;47.436;21.390;2023-02-28T04:49:37;101759.88;;;2.64;61.45
64086;BME280;50333;47.436;21.390;2023-02-28T04:52:05;101753.88;;;2.25;62.07
64086;BME280;50333;47.436;21.390;2023-02-28T04:54:35;101752.50;;;2.38;61.85
64086;BME280;50333;47.436;21.390;2023-02-28T04:57:03;101759.63;;;2.51;62.04
64086;BME280;50333;47.436;21.390;2023-02-28T04:59:33;101753.91;;;2.63;61.43
64086;BME280;50333;47.436;21.390;2023-02-28T05:02:01;101748.03;;;2.93;60.55
64086;BME280;50333;47.436;21.390;2023-02-28T05:04:34;101755.63;;;2.71;61.10
64086;BME280;50333;47.436;21.390;2023-02-28T05:07:02;101754.19;;;2.69;61.34
64086;BME280;50333;47.436;21.390;2023-02-28T05:09:30;101747.88;;;2.56;61.50
64086;BME280;50333;47.436;21.390;2023-02-28T05:12:00;101745.97;;;2.27;61.85
64086;BME280;50333;47.436;21.390;2023-02-28T05:14:28;101734.97;;;1.87;63.35
64086;BME280;50333;47.436;21.390;2023-02-28T05:16:56;101744.69;;;2.23;62.94
64086;BME280;50333;47.436;21.390;2023-02-28T05:19:23;101746.97;;;1.95;63.28
64086;BME280;50333;47.436;21.390;2023-02-28T05:21:54;101753.88;;;2.25;62.83
64086;BME280;50333;47.436;21.390;2023-02-28T05:24:22;101746.13;;;1.71;63.73
64086;BME280;50333;47.436;21.390;2023-02-28T05:26:52;101742.09;;;1.29;65.06
64086;BME280;50333;47.436;21.390;2023-02-28T05:29:21;101743.28;;;1.49;64.03
64086;BME280;50333;47.436;21.390;2023-02-28T05:31:49;101747.78;;;1.56;64.64
64086;BME280;50333;47.436;21.390;2023-02-28T05:34:17;101747.06;;;1.78;64.44
64086;BME280;50333;47.436;21.390;2023-02-28T05:36:45;101749.72;;;1.54;64.54
64086;BME280;50333;47.436;21.390;2023-02-28T05:39:13;101751.44;;;1.69;64.03
64086;BME280;50333;47.436;21.390;2023-02-28T05:41:42;101748.84;;;2.09;63.22
64086;BME280;50333;47.436;21.390;2023-02-28T05:44:10;101754.44;;;1.81;64.07
64086;BME280;50333;47.436;21.390;2023-02-28T05:46:38;101752.53;;;1.67;64.25
64086;BME280;50333;47.436;21.390;2023-02-28T05:49:05;101748.19;;;1.36;65.04
64086;BME280;50333;47.436;21.390;2023-02-28T05:51:34;101754.25;;;1.43;65.08
64086;BME280;50333;47.436;21.390;2023-02-28T05:54:03;101748.31;;;1.82;64.16
64086;BME280;50333;47.436;21.390;2023-02-28T05:56:32;101750.53;;;1.54;64.44
64086;BME280;50333;47.436;21.390;2023-02-28T05:59:02;101746.69;;;1.50;64.82
64086;BME280;50333;47.436;21.390;2023-02-28T06:01:35;101736.28;;;1.35;65.22
64086;BME280;50333;47.436;21.390;2023-02-28T06:04:07;101736.28;;;1.35;65.18
64086;BME280;50333;47.436;21.390;2023-02-28T06:06:43;101744.84;;;1.67;64.73
64086;BME280;50333;47.436;21.390;2023-02-28T06:09:12;101735.69;;;1.73;64.49
64086;BME280;50333;47.436;21.390;2023-02-28T06:11:41;101739.16;;;1.40;65.41
64086;BME280;50333;47.436;21.390;2023-02-28T06:14:14;101733.75;;;1.66;67.47
64086;BME280;50333;47.436;21.390;2023-02-28T06:16:43;101741.81;;;1.95;66.92
64086;BME280;50333;47.436;21.390;2023-02-28T06:19:11;101733.62;;;2.22;63.49
64086;BME280;50333;47.436;21.390;2023-02-28T06:21:38;101742.75;;;2.02;64.29
64086;BME280;50333;47.436;21.390;2023-02-28T06:24:07;101742.06;;;1.77;64.95
64086;BME280;50333;47.436;21.390;2023-02-28T06:26:35;101745.16;;;1.24;66.74
64086;BME280;50333;47.436;21.390;2023-02-28T06:29:03;101748.87;;;1.13;67.36
64086;BME280;50333;47.436;21.390;2023-02-28T06:31:31;101749.34;;;1.17;67.65
64086;BME280;50333;47.436;21.390;2023-02-28T06:33:59;101751.59;;;0.96;68.60
64086;BME280;50333;47.436;21.390;2023-02-28T06:36:27;101753.53;;;0.85;69.30
64086;BME280;50333;47.436;21.390;2023-02-28T06:38:55;101748.41;;;0.85;69.20
64086;BME280;50333;47.436;21.390;2023-02-28T06:41:25;101748.13;;;0.80;69.78
64086;BME280;50333;47.436;21.390;2023-02-28T06:43:54;101751.63;;;0.87;69.91
64086;BME280;50333;47.436;21.390;2023-02-28T06:46:22;101754.53;;;0.92;69.61
64086;BME280;50333;47.436;21.390;2023-02-28T06:48:50;101760.13;;;0.80;70.28
64086;BME280;50333;47.436;21.390;2023-02-28T06:51:19;101763.16;;;1.08;69.65
64086;BME280;50333;47.436;21.390;2023-02-28T06:53:51;101770.22;;;1.14;69.78
64086;BME280;50333;47.436;21.390;2023-02-28T06:56:19;101779.97;;;1.27;69.33
64086;BME280;50333;47.436;21.390;2023-02-28T06:58:49;101776.28;;;1.38;68.99
64086;BME280;50333;47.436;21.390;2023-02-28T07:01:17;101775.78;;;1.34;69.21
64086;BME280;50333;47.436;21.390;2023-02-28T07:03:46;101776.97;;;1.15;69.73
64086;BME280;50333;47.436;21.390;2023-02-28T07:06:14;101787.19;;;1.40;68.82
64086;BME280;50333;47.436;21.390;2023-02-28T07:08:41;101791.47;;;1.64;68.23
64086;BME280;50333;47.436;21.390;2023-02-28T07:11:10;101790.63;;;1.63;68.35
64086;BME280;50333;47.436;21.390;2023-02-28T07:13:37;101793.56;;;1.60;68.54
64086;BME280;50333;47.436;21.390;2023-02-28T07:16:07;101795.63;;;1.65;68.40
64086;BME280;50333;47.436;21.390;2023-02-28T07:18:37;101803.37;;;1.48;69.56
64086;BME280;50333;47.436;21.390;2023-02-28T07:21:07;101806.41;;;1.60;70.22
64086;BME280;50333;47.436;21.390;2023-02-28T07:23:36;101800.44;;;1.68;71.01
64086;BME280;50333;47.436;21.390;2023-02-28T07:26:07;101803.34;;;1.57;72.49
64086;BME280;50333;47.436;21.390;2023-02-28T07:28:38;101801.78;;;1.39;73.24
64086;BME280;50333;47.436;21.390;2023-02-28T07:31:07;101800.50;;;1.52;73.13
64086;BME280;50333;47.436;21.390;2023-02-28T07:33:36;101795.63;;;1.65;73.76
64086;BME280;50333;47.436;21.390;2023-02-28T07:36:14;101803.25;;;1.42;74.09
64086;BME280;50333;47.436;21.390;2023-02-28T07:38:44;101792.41;;;1.63;74.06
64086;BME280;50333;47.436;21.390;2023-02-28T07:41:19;101806.56;;;1.59;74.06
64086;BME280;50333;47.436;21.390;2023-02-28T07:43:48;101798.88;;;1.59;73.22
64086;BME280;50333;47.436;21.390;2023-02-28T07:46:16;101805.56;;;1.68;73.90
64086;BME280;50333;47.436;21.390;2023-02-28T07:48:44;101800.91;;;1.72;73.78
64086;BME280;50333;47.436;21.390;2023-02-28T07:51:12;101801.91;;;2.02;73.36
64086;BME280;50333;47.436;21.390;2023-02-28T07:53:40;101801.84;;;2.18;71.96
64086;BME280;50333;47.436;21.390;2023-02-28T07:56:08;101801.41;;;2.38;71.92
64086;BME280;50333;47.436;21.390;2023-02-28T07:58:36;101802.09;;;2.00;71.21
64086;BME280;50333;47.436;21.390;2023-02-28T08:01:08;101798.78;;;2.46;71.39
64086;BME280;50333;47.436;21.390;2023-02-28T08:03:37;101794.88;;;2.50;70.54
64086;BME280;50333;47.436;21.390;2023-02-28T08:06:07;101802.38;;;2.83;69.58
64086;BME280;50333;47.436;21.390;2023-02-28T08:08:36;101800.22;;;2.72;70.11
64086;BME280;50333;47.436;21.390;2023-02-28T08:11:03;101799.91;;;3.05;68.61
64086;BME280;50333;47.436;21.390;2023-02-28T08:13:31;101814.06;;;2.71;70.35
64086;BME280;50333;47.436;21.390;2023-02-28T08:16:01;101804.97;;;2.60;68.80
64086;BME280;50333;47.436;21.390;2023-02-28T08:18:29;101805.38;;;3.25;67.53
64086;BME280;50333;47.436;21.390;2023-02-28T08:20:56;101809.13;;;2.61;67.99
64086;BME280;50333;47.436;21.390;2023-02-28T08:23:25;101808.81;;;3.17;67.39
64086;BME280;50333;47.436;21.390;2023-02-28T08:25:54;101801.31;;;3.60;66.24
64086;BME280;50333;47.436;21.390;2023-02-28T08:28:22;101812.66;;;3.21;66.88
64086;BME280;50333;47.436;21.390;2023-02-28T08:30:54;101815.94;;;3.15;65.98
64086;BME280;50333;47.436;21.390;2023-02-28T08:33:23;101817.56;;;3.16;65.90
64086;BME280;50333;47.436;21.390;2023-02-28T08:35:54;101811.44;;;3.32;66.08
64086;BME280;50333;47.436;21.390;2023-02-28T08:38:23;101812.47;;;3.08;65.92
64086;BME280;50333;47.436;21.390;2023-02-28T08:41:00;101811.28;;;2.95;66.06
64086;BME280;50333;47.436;21.390;2023-02-28T08:43:29;101810.44;;;3.03;65.39
64086;BME280;50333;47.436;21.390;2023-02-28T08:45:56;101812.87;;;2.73;66.03
64086;BME280;50333;47.436;21.390;2023-02-28T08:48:28;101810.03;;;2.68;66.53
64086;BME280;50333;47.436;21.390;2023-02-28T08:51:00;101806.84;;;2.89;66.24
64086;BME280;50333;47.436;21.390;2023-02-28T08:53:36;101805.00;;;2.98;65.46
64086;BME280;50333;47.436;21.390;2023-02-28T08:56:06;101799.16;;;3.19;66.23
64086;BME280;50333;47.436;21.390;2023-02-28T08:58:34;101812.31;;;3.39;66.04
64086;BME280;50333;47.436;21.390;2023-02-28T09:01:14;101801.66;;;3.42;65.36
64086;BME280;50333;47.436;21.390;2023-02-28T09:03:43;101803.88;;;3.30;64.57
64086;BME280;50333;47.436;21.390;2023-02-28T09:06:13;101805.47;;;3.46;64.73
64086;BME280;50333;47.436;21.390;2023-02-28T09:08:41;101801.38;;;3.22;64.03
64086;BME280;50333;47.436;21.390;2023-02-28T09:11:09;101807.38;;;2.99;64.54
64086;BME280;50333;47.436;21.390;2023-02-28T09:21:18;101805.03;;;3.28;63.57
64086;BME280;50333;47.436;21.390;2023-02-28T09:23:48;101814.91;;;3.24;64.57
64086;BME280;50333;47.436;21.390;2023-02-28T09:26:19;101797.03;;;3.67;64.35
64086;BME280;50333;47.436;21.390;2023-02-28T09:28:47;101811.62;;;3.60;63.97
64086;BME280;50333;47.436;21.390;2023-02-28T09:31:18;101814.25;;;4.11;63.44
64086;BME280;50333;47.436;21.390;2023-02-28T09:33:52;101816.87;;;3.82;64.01
64086;BME280;50333;47.436;21.390;2023-02-28T09:36:21;101823.09;;;3.72;63.51
64086;BME280;50333;47.436;21.390;2023-02-28T09:38:55;101819.50;;;4.03;63.35
64086;BME280;50333;47.436;21.390;2023-02-28T09:41:25;101818.75;;;4.24;62.24
64086;BME280;50333;47.436;21.390;2023-02-28T09:43:57;101819.81;;;3.78;62.63
64086;BME280;50333;47.436;21.390;2023-02-28T09:46:33;101809.87;;;3.97;63.23
64086;BME280;50333;47.436;21.390;2023-02-28T09:49:07;101809.66;;;3.77;63.33
64086;BME280;50333;47.436;21.390;2023-02-28T09:54:23;101804.59;;;3.84;63.92
64086;BME280;50333;47.436;21.390;2023-02-28T10:05:13;101802.00;;;4.57;62.05
64086;BME280;50333;47.436;21.390;2023-02-28T10:07:53;101800.03;;;4.01;62.98
64086;BME280;50333;47.436;21.390;2023-02-28T10:10:40;101805.47;;;3.91;63.27
64086;BME280;50333;47.436;21.390;2023-02-28T10:16:17;101807.53;;;4.53;62.12
64086;BME280;50333;47.436;21.390;2023-02-28T10:18:51;101806.63;;;4.25;62.68
64086;BME280;50333;47.436;21.390;2023-02-28T10:21:47;101799.13;;;4.30;63.02
64086;BME280;50333;47.436;21.390;2023-02-28T10:24:41;101803.22;;;4.03;63.70
64086;BME280;50333;47.436;21.390;2023-02-28T10:29:52;101796.97;;;4.12;63.57
64086;BME280;50333;47.436;21.390;2023-02-28T10:32:27;101790.78;;;3.91;64.31
64086;BME280;50333;47.436;21.390;2023-02-28T10:35:01;101791.19;;;4.10;63.75
64086;BME280;50333;47.436;21.390;2023-02-28T10:37:37;101786.66;;;4.33;63.87
64086;BME280;50333;47.436;21.390;2023-02-28T10:40:06;101780.44;;;4.06;64.36
64086;BME280;50333;47.436;21.390;2023-02-28T10:42:36;101784.72;;;3.99;64.58
64086;BME280;50333;47.436;21.390;2023-02-28T10:45:13;101776.16;;;4.13;64.94
64086;BME280;50333;47.436;21.390;2023-02-28T10:47:56;101781.19;;;4.22;64.92
64086;BME280;50333;47.436;21.390;2023-02-28T10:50:31;101779.06;;;4.47;64.58
64086;BME280;50333;47.436;21.390;2023-02-28T10:56:12;101770.03;;;4.36;63.83
64086;BME280;50333;47.436;21.390;2023-02-28T11:03:44;101780.81;;;4.68;63.21
64086;BME280;50333;47.436;21.390;2023-02-28T11:06:16;101776.28;;;4.48;63.25
64086;BME280;50333;47.436;21.390;2023-02-28T11:08:54;101768.59;;;4.33;64.18
64086;BME280;50333;47.436;21.390;2023-02-28T11:11:25;101770.59;;;4.53;63.69
64086;BME280;50333;47.436;21.390;2023-02-28T11:13:57;101766.31;;;4.67;62.94
64086;BME280;50333;47.436;21.390;2023-02-28T11:16:34;101768.50;;;4.70;63.21
64086;BME280;50333;47.436;21.390;2023-02-28T11:19:06;101761.28;;;4.59;63.43
64086;BME280;50333;47.436;21.390;2023-02-28T11:21:51;101761.41;;;4.50;63.90
64086;BME280;50333;47.436;21.390;2023-02-28T11:24:41;101758.56;;;4.45;63.50
64086;BME280;50333;47.436;21.390;2023-02-28T11:30:00;101754.91;;;4.55;63.65
64086;BME280;50333;47.436;21.390;2023-02-28T11:32:29;101747.56;;;4.37;64.20
64086;BME280;50333;47.436;21.390;2023-02-28T11:37:39;101753.00;;;4.63;63.61
64086;BME280;50333;47.436;21.390;2023-02-28T11:40:18;101750.78;;;4.88;62.58
64086;BME280;50333;47.436;21.390;2023-02-28T11:53:22;101751.44;;;5.32;62.00
64086;BME280;50333;47.436;21.390;2023-02-28T11:59:03;101745.78;;;5.15;62.12
64086;BME280;50333;47.436;21.390;2023-02-28T12:01:54;101748.06;;;5.32;60.95
64086;BME280;50333;47.436;21.390;2023-02-28T12:10:28;101743.38;;;5.14;61.38
64086;BME280;50333;47.436;21.390;2023-02-28T12:26:46;101738.44;;;5.60;58.98
64086;BME280;50333;47.436;21.390;2023-02-28T12:29:19;101739.06;;;5.69;58.82
64086;BME280;50333;47.436;21.390;2023-02-28T12:34:28;101736.72;;;5.26;60.06
64086;BME280;50333;47.436;21.390;2023-02-28T12:37:04;101732.38;;;5.40;59.79
64086;BME280;50333;47.436;21.390;2023-02-28T12:39:45;101737.00;;;5.51;60.45
64086;BME280;50333;47.436;21.390;2023-02-28T12:42:36;101742.31;;;5.36;60.19
64086;BME280;50333;47.436;21.390;2023-02-28T12:45:21;101737.03;;;5.58;58.84
64086;BME280;50333;47.436;21.390;2023-02-28T12:47:57;101731.53;;;5.33;62.32
64086;BME280;50333;47.436;21.390;2023-02-28T12:50:28;101730.00;;;5.45;59.55
64086;BME280;50333;47.436;21.390;2023-02-28T12:53:06;101725.25;;;5.48;59.29
64086;BME280;50333;47.436;21.390;2023-02-28T12:55:52;101731.72;;;5.24;60.01
64086;BME280;50333;47.436;21.390;2023-02-28T12:58:39;101731.97;;;5.36;59.73
64086;BME280;50333;47.436;21.390;2023-02-28T13:07:19;101732.13;;;5.70;59.05
64086;BME280;50333;47.436;21.390;2023-02-28T13:09:55;101728.72;;;5.69;58.25
64086;BME280;50333;47.436;21.390;2023-02-28T13:12:24;101722.59;;;5.83;57.55
64086;BME280;50333;47.436;21.390;2023-02-28T13:15:05;101726.94;;;5.76;58.23
64086;BME280;50333;47.436;21.390;2023-02-28T13:17:39;101729.91;;;5.66;58.71
64086;BME280;50333;47.436;21.390;2023-02-28T13:20:20;101726.75;;;5.78;58.27
64086;BME280;50333;47.436;21.390;2023-02-28T13:22:52;101728.50;;;5.64;58.47
64086;BME280;50333;47.436;21.390;2023-02-28T13:28:02;101729.16;;;5.86;58.05
64086;BME280;50333;47.436;21.390;2023-02-28T13:33:34;101725.06;;;6.05;57.99
64086;BME280;50333;47.436;21.390;2023-02-28T13:36:25;101716.97;;;5.66;58.75
64086;BME280;50333;47.436;21.390;2023-02-28T13:38:55;101724.63;;;5.95;58.22
64086;BME280;50333;47.436;21.390;2023-02-28T13:44:12;101712.75;;;6.54;56.64
64086;BME280;50333;47.436;21.390;2023-02-28T13:52:14;101707.53;;;6.00;56.78
64086;BME280;50333;47.436;21.390;2023-02-28T14:05:20;101701.59;;;6.13;57.27
64086;BME280;50333;47.436;21.390;2023-02-28T14:07:56;101690.63;;;6.31;56.63
64086;BME280;50333;47.436;21.390;2023-02-28T14:10:31;101698.19;;;5.99;57.08
64086;BME280;50333;47.436;21.390;2023-02-28T14:13:37;101703.16;;;6.08;57.24
64086;BME280;50333;47.436;21.390;2023-02-28T14:16:56;101694.31;;;5.89;57.58
64086;BME280;50333;47.436;21.390;2023-02-28T14:19:29;101693.03;;;6.26;57.20
64086;BME280;50333;47.436;21.390;2023-02-28T14:31:07;101679.41;;;6.91;55.39
64086;BME280;50333;47.436;21.390;2023-02-28T14:36:39;101679.66;;;6.02;56.71
64086;BME280;50333;47.436;21.390;2023-02-28T14:39:16;101682.06;;;6.24;56.60
64086;BME280;50333;47.436;21.390;2023-02-28T14:41:45;101679.09;;;6.27;56.75
64086;BME280;50333;47.436;21.390;2023-02-28T14:44:23;101682.47;;;6.41;57.05
64086;BME280;50333;47.436;21.390;2023-02-28T14:47:01;101681.47;;;6.22;56.38
64086;BME280;50333;47.436;21.390;2023-02-28T14:49:41;101671.69;;;6.44;56.26
64086;BME280;50333;47.436;21.390;2023-02-28T14:52:17;101673.50;;;6.57;56.15
64086;BME280;50333;47.436;21.390;2023-02-28T14:54:52;101663.13;;;6.57;56.21
64086;BME280;50333;47.436;21.390;2023-02-28T14:57:23;101667.91;;;6.47;56.40
64086;BME280;50333;47.436;21.390;2023-02-28T15:02:34;101665.28;;;6.67;55.65
64086;BME280;50333;47.436;21.390;2023-02-28T15:07:47;101663.22;;;7.02;55.23
64086;BME280;50333;47.436;21.390;2023-02-28T15:10:21;101678.88;;;6.35;56.62
64086;BME280;50333;47.436;21.390;2023-02-28T15:15:21;101665.88;;;6.69;55.69
64086;BME280;50333;47.436;21.390;2023-02-28T15:18:07;101671.69;;;6.51;56.28
64086;BME280;50333;47.436;21.390;2023-02-28T15:20:38;101680.47;;;6.36;55.70
64086;BME280;50333;47.436;21.390;2023-02-28T15:23:06;101681.66;;;6.60;55.56
64086;BME280;50333;47.436;21.390;2023-02-28T15:25:34;101678.22;;;6.87;55.18
64086;BME280;50333;47.436;21.390;2023-02-28T15:28:02;101671.69;;;6.64;55.70
64086;BME280;50333;47.436;21.390;2023-02-28T15:30:31;101678.34;;;7.05;55.03
64086;BME280;50333;47.436;21.390;2023-02-28T15:33:21;101675.00;;;6.98;54.96
64086;BME280;50333;47.436;21.390;2023-02-28T15:35:50;101675.03;;;6.85;55.16
64086;BME280;50333;47.436;21.390;2023-02-28T15:40:56;101677.69;;;6.38;55.78
64086;BME280;50333;47.436;21.390;2023-02-28T15:43:27;101679.66;;;6.76;55.45
64086;BME280;50333;47.436;21.390;2023-02-28T15:46:04;101672.03;;;6.88;55.17
64086;BME280;50333;47.436;21.390;2023-02-28T15:54:05;101669.03;;;6.84;55.77